sensor_id;sensor_type;location;lat;lon;timestamp;P1;durP1;ratioP1;P2;durP2;ratioP2
75781;SDS011;64400;44.762;37.698;2022-12-20T00:02:18;13.70;;;7.47;;
75781;SDS011;64400;44.762;37.698;2022-12-20T00:05:07;13.85;;;7.35;;
75781;SDS011;64400;44.762;37.698;2022-12-20T00:07:57;12.77;;;7.03;;
75781;SDS011;64400;44.762;37.698;2022-12-20T00:10:46;14.65;;;7.65;;
75781;SDS011;64400;44.762;37.698;2022-12-20T00:13:35;13.98;;;7.97;;
75781;SDS011;64400;44.762;37.698;2022-12-20T00:16:25;14.13;;;8.00;;
75781;SDS011;64400;44.762;37.698;2022-12-20T00:19:16;14.80;;;8.05;;
75781;SDS011;64400;44.762;37.698;2022-12-20T00:22:05;12.45;;;7.57;;
75781;SDS011;64400;44.762;37.698;2022-12-20T00:24:54;15.60;;;8.13;;
75781;SDS011;64400;44.762;37.698;2022-12-20T00:27:43;17.67;;;7.60;;
75781;SDS011;64400;44.762;37.698;2022-12-20T00:30:31;13.95;;;7.15;;
75781;SDS011;64400;44.762;37.698;2022-12-20T00:33:20;14.85;;;7.70;;
75781;SDS011;64400;44.762;37.698;2022-12-20T00:36:09;16.67;;;8.75;;
75781;SDS011;64400;44.762;37.698;2022-12-20T00:38:58;16.45;;;8.13;;
75781;SDS011;64400;44.762;37.698;2022-12-20T00:41:47;15.45;;;8.40;;
75781;SDS011;64400;44.762;37.698;2022-12-20T00:44:37;14.77;;;7.90;;
75781;SDS011;64400;44.762;37.698;2022-12-20T00:47:28;18.15;;;8.65;;
75781;SDS011;64400;44.762;37.698;2022-12-20T00:50:17;17.80;;;10.25;;
75781;SDS011;64400;44.762;37.698;2022-12-20T00:53:05;17.25;;;9.43;;
75781;SDS011;64400;44.762;37.698;2022-12-20T00:55:57;15.70;;;8.32;;
75781;SDS011;64400;44.762;37.698;2022-12-20T00:58:47;13.35;;;7.43;;
75781;SDS011;64400;44.762;37.698;2022-12-20T01:01:36;14.15;;;7.95;;
75781;SDS011;64400;44.762;37.698;2022-12-20T01:04:25;13.35;;;7.28;;
75781;SDS011;64400;44.762;37.698;2022-12-20T01:07:13;12.75;;;6.75;;
75781;SDS011;64400;44.762;37.698;2022-12-20T01:10:02;12.00;;;6.95;;
75781;SDS011;64400;44.762;37.698;2022-12-20T01:12:52;13.80;;;7.63;;
75781;SDS011;64400;44.762;37.698;2022-12-20T01:15:40;11.98;;;6.75;;
75781;SDS011;64400;44.762;37.698;2022-12-20T01:18:29;15.18;;;8.05;;
75781;SDS011;64400;44.762;37.698;2022-12-20T01:21:18;15.80;;;7.60;;
75781;SDS011;64400;44.762;37.698;2022-12-20T01:23:53;12.90;;;6.97;;
75781;SDS011;64400;44.762;37.698;2022-12-20T01:26:43;15.45;;;7.85;;
75781;SDS011;64400;44.762;37.698;2022-12-20T01:29:32;14.57;;;8.07;;
75781;SDS011;64400;44.762;37.698;2022-12-20T01:32:20;13.77;;;8.02;;
75781;SDS011;64400;44.762;37.698;2022-12-20T01:35:09;15.07;;;7.65;;
75781;SDS011;64400;44.762;37.698;2022-12-20T01:37:57;14.70;;;7.95;;
75781;SDS011;64400;44.762;37.698;2022-12-20T01:40:46;13.23;;;7.90;;
75781;SDS011;64400;44.762;37.698;2022-12-20T01:43:46;19.27;;;10.10;;
75781;SDS011;64400;44.762;37.698;2022-12-20T01:46:36;13.63;;;7.40;;
75781;SDS011;64400;44.762;37.698;2022-12-20T01:52:21;15.15;;;8.27;;
75781;SDS011;64400;44.762;37.698;2022-12-20T01:55:23;14.50;;;7.65;;
75781;SDS011;64400;44.762;37.698;2022-12-20T01:58:15;14.90;;;8.07;;
75781;SDS011;64400;44.762;37.698;2022-12-20T02:01:06;17.48;;;8.02;;
75781;SDS011;64400;44.762;37.698;2022-12-20T02:03:54;17.95;;;9.18;;
75781;SDS011;64400;44.762;37.698;2022-12-20T02:06:43;15.70;;;8.85;;
75781;SDS011;64400;44.762;37.698;2022-12-20T02:09:32;15.38;;;8.75;;
75781;SDS011;64400;44.762;37.698;2022-12-20T02:12:23;14.00;;;8.13;;
75781;SDS011;64400;44.762;37.698;2022-12-20T02:18:25;18.33;;;9.52;;
75781;SDS011;64400;44.762;37.698;2022-12-20T02:21:38;17.88;;;9.45;;
75781;SDS011;64400;44.762;37.698;2022-12-20T02:24:42;16.05;;;8.93;;
75781;SDS011;64400;44.762;37.698;2022-12-20T02:31:03;15.18;;;9.55;;
75781;SDS011;64400;44.762;37.698;2022-12-20T02:33:56;15.68;;;9.68;;
75781;SDS011;64400;44.762;37.698;2022-12-20T02:36:45;17.63;;;9.63;;
75781;SDS011;64400;44.762;37.698;2022-12-20T02:39:35;15.98;;;9.63;;
75781;SDS011;64400;44.762;37.698;2022-12-20T02:42:26;18.63;;;9.60;;
75781;SDS011;64400;44.762;37.698;2022-12-20T02:45:16;16.85;;;9.68;;
75781;SDS011;64400;44.762;37.698;2022-12-20T02:48:09;17.33;;;10.57;;
75781;SDS011;64400;44.762;37.698;2022-12-20T02:50:59;16.00;;;9.18;;
75781;SDS011;64400;44.762;37.698;2022-12-20T02:53:50;17.85;;;10.13;;
75781;SDS011;64400;44.762;37.698;2022-12-20T02:59:49;18.45;;;10.90;;
75781;SDS011;64400;44.762;37.698;2022-12-20T03:02:40;17.40;;;10.20;;
75781;SDS011;64400;44.762;37.698;2022-12-20T03:05:52;18.77;;;10.82;;
75781;SDS011;64400;44.762;37.698;2022-12-20T03:08:42;19.65;;;10.77;;
75781;SDS011;64400;44.762;37.698;2022-12-20T03:11:34;17.67;;;10.57;;
75781;SDS011;64400;44.762;37.698;2022-12-20T03:14:23;18.92;;;11.20;;
75781;SDS011;64400;44.762;37.698;2022-12-20T03:17:12;20.13;;;11.77;;
75781;SDS011;64400;44.762;37.698;2022-12-20T03:20:01;19.50;;;11.00;;
75781;SDS011;64400;44.762;37.698;2022-12-20T03:22:53;18.38;;;10.82;;
75781;SDS011;64400;44.762;37.698;2022-12-20T03:25:41;19.27;;;10.52;;
75781;SDS011;64400;44.762;37.698;2022-12-20T03:28:35;19.13;;;10.93;;
75781;SDS011;64400;44.762;37.698;2022-12-20T03:31:26;19.35;;;10.90;;
75781;SDS011;64400;44.762;37.698;2022-12-20T03:34:15;20.50;;;11.82;;
75781;SDS011;64400;44.762;37.698;2022-12-20T03:37:04;20.23;;;10.52;;
75781;SDS011;64400;44.762;37.698;2022-12-20T03:39:53;21.23;;;11.82;;
75781;SDS011;64400;44.762;37.698;2022-12-20T03:42:41;21.02;;;12.10;;
75781;SDS011;64400;44.762;37.698;2022-12-20T03:45:30;16.90;;;10.57;;
75781;SDS011;64400;44.762;37.698;2022-12-20T03:48:19;19.83;;;11.63;;
75781;SDS011;64400;44.762;37.698;2022-12-20T03:51:08;18.60;;;11.73;;
75781;SDS011;64400;44.762;37.698;2022-12-20T03:53:57;17.58;;;10.30;;
75781;SDS011;64400;44.762;37.698;2022-12-20T03:57:05;17.45;;;10.82;;
75781;SDS011;64400;44.762;37.698;2022-12-20T03:59:56;21.20;;;11.77;;
75781;SDS011;64400;44.762;37.698;2022-12-20T04:02:48;18.73;;;10.98;;
75781;SDS011;64400;44.762;37.698;2022-12-20T04:05:36;24.05;;;11.05;;
75781;SDS011;64400;44.762;37.698;2022-12-20T04:08:26;18.42;;;10.20;;
75781;SDS011;64400;44.762;37.698;2022-12-20T04:11:22;17.88;;;11.00;;
75781;SDS011;64400;44.762;37.698;2022-12-20T04:14:14;22.08;;;11.63;;
75781;SDS011;64400;44.762;37.698;2022-12-20T04:17:03;19.65;;;10.93;;
75781;SDS011;64400;44.762;37.698;2022-12-20T04:19:52;18.73;;;10.57;;
75781;SDS011;64400;44.762;37.698;2022-12-20T04:22:41;18.23;;;10.30;;
75781;SDS011;64400;44.762;37.698;2022-12-20T04:25:29;17.17;;;9.35;;
75781;SDS011;64400;44.762;37.698;2022-12-20T04:28:18;17.58;;;10.80;;
75781;SDS011;64400;44.762;37.698;2022-12-20T04:31:09;18.00;;;10.27;;
75781;SDS011;64400;44.762;37.698;2022-12-20T04:33:59;18.90;;;10.50;;
75781;SDS011;64400;44.762;37.698;2022-12-20T04:36:49;18.70;;;11.38;;
75781;SDS011;64400;44.762;37.698;2022-12-20T04:39:49;20.33;;;11.60;;
75781;SDS011;64400;44.762;37.698;2022-12-20T04:42:51;21.42;;;11.98;;
75781;SDS011;64400;44.762;37.698;2022-12-20T04:45:39;19.10;;;11.48;;
75781;SDS011;64400;44.762;37.698;2022-12-20T04:48:28;19.63;;;11.57;;
75781;SDS011;64400;44.762;37.698;2022-12-20T04:51:17;27.20;;;12.93;;
75781;SDS011;64400;44.762;37.698;2022-12-20T04:54:05;18.45;;;10.57;;
75781;SDS011;64400;44.762;37.698;2022-12-20T04:57:04;18.63;;;11.13;;
75781;SDS011;64400;44.762;37.698;2022-12-20T04:59:52;19.67;;;11.45;;
75781;SDS011;64400;44.762;37.698;2022-12-20T05:02:43;21.15;;;10.50;;
75781;SDS011;64400;44.762;37.698;2022-12-20T05:05:32;18.13;;;10.35;;
75781;SDS011;64400;44.762;37.698;2022-12-20T05:08:10;14.68;;;8.15;;
75781;SDS011;64400;44.762;37.698;2022-12-20T05:10:59;19.90;;;11.07;;
75781;SDS011;64400;44.762;37.698;2022-12-20T05:13:49;19.90;;;10.95;;
75781;SDS011;64400;44.762;37.698;2022-12-20T05:16:37;18.30;;;11.20;;
75781;SDS011;64400;44.762;37.698;2022-12-20T05:19:27;19.50;;;11.05;;
75781;SDS011;64400;44.762;37.698;2022-12-20T05:22:16;16.27;;;9.10;;
75781;SDS011;64400;44.762;37.698;2022-12-20T05:25:23;17.98;;;10.40;;
75781;SDS011;64400;44.762;37.698;2022-12-20T05:28:30;20.13;;;10.50;;
75781;SDS011;64400;44.762;37.698;2022-12-20T05:31:19;18.02;;;10.25;;
75781;SDS011;64400;44.762;37.698;2022-12-20T05:34:08;18.27;;;10.07;;
75781;SDS011;64400;44.762;37.698;2022-12-20T05:36:57;21.00;;;10.45;;
75781;SDS011;64400;44.762;37.698;2022-12-20T05:39:46;16.63;;;8.98;;
75781;SDS011;64400;44.762;37.698;2022-12-20T05:42:36;13.32;;;7.05;;
75781;SDS011;64400;44.762;37.698;2022-12-20T05:45:33;16.45;;;8.75;;
75781;SDS011;64400;44.762;37.698;2022-12-20T05:48:31;17.35;;;9.65;;
75781;SDS011;64400;44.762;37.698;2022-12-20T05:51:22;20.58;;;10.63;;
75781;SDS011;64400;44.762;37.698;2022-12-20T05:54:20;18.55;;;10.35;;
75781;SDS011;64400;44.762;37.698;2022-12-20T05:57:14;19.85;;;11.13;;
75781;SDS011;64400;44.762;37.698;2022-12-20T06:00:04;17.10;;;9.05;;
75781;SDS011;64400;44.762;37.698;2022-12-20T06:02:54;15.82;;;9.13;;
75781;SDS011;64400;44.762;37.698;2022-12-20T06:05:43;14.82;;;7.72;;
75781;SDS011;64400;44.762;37.698;2022-12-20T06:08:33;16.95;;;9.40;;
75781;SDS011;64400;44.762;37.698;2022-12-20T06:11:34;15.20;;;8.07;;
75781;SDS011;64400;44.762;37.698;2022-12-20T06:14:23;16.02;;;8.93;;
75781;SDS011;64400;44.762;37.698;2022-12-20T06:17:13;19.27;;;9.55;;
75781;SDS011;64400;44.762;37.698;2022-12-20T06:20:02;18.30;;;9.02;;
75781;SDS011;64400;44.762;37.698;2022-12-20T06:22:52;16.27;;;8.40;;
75781;SDS011;64400;44.762;37.698;2022-12-20T06:25:47;14.52;;;7.53;;
75781;SDS011;64400;44.762;37.698;2022-12-20T06:28:44;20.52;;;10.00;;
75781;SDS011;64400;44.762;37.698;2022-12-20T06:31:38;21.25;;;10.88;;
75781;SDS011;64400;44.762;37.698;2022-12-20T06:34:07;19.27;;;9.23;;
75781;SDS011;64400;44.762;37.698;2022-12-20T06:36:55;18.85;;;8.93;;
75781;SDS011;64400;44.762;37.698;2022-12-20T06:39:44;17.42;;;8.75;;
75781;SDS011;64400;44.762;37.698;2022-12-20T06:42:32;20.25;;;10.80;;
75781;SDS011;64400;44.762;37.698;2022-12-20T06:45:23;17.27;;;9.30;;
75781;SDS011;64400;44.762;37.698;2022-12-20T06:48:12;19.60;;;10.20;;
75781;SDS011;64400;44.762;37.698;2022-12-20T06:51:01;19.05;;;9.75;;
75781;SDS011;64400;44.762;37.698;2022-12-20T06:53:49;17.33;;;7.75;;
75781;SDS011;64400;44.762;37.698;2022-12-20T06:56:38;18.55;;;8.32;;
75781;SDS011;64400;44.762;37.698;2022-12-20T06:59:27;15.57;;;7.60;;
75781;SDS011;64400;44.762;37.698;2022-12-20T07:02:16;15.63;;;8.43;;
75781;SDS011;64400;44.762;37.698;2022-12-20T07:05:05;16.40;;;9.55;;
75781;SDS011;64400;44.762;37.698;2022-12-20T07:07:54;16.08;;;8.40;;
75781;SDS011;64400;44.762;37.698;2022-12-20T07:10:42;15.23;;;8.63;;
75781;SDS011;64400;44.762;37.698;2022-12-20T07:13:17;15.07;;;8.25;;
75781;SDS011;64400;44.762;37.698;2022-12-20T07:15:55;13.93;;;7.05;;
75781;SDS011;64400;44.762;37.698;2022-12-20T07:18:48;16.48;;;8.65;;
75781;SDS011;64400;44.762;37.698;2022-12-20T07:21:37;14.15;;;7.82;;
75781;SDS011;64400;44.762;37.698;2022-12-20T07:24:26;16.38;;;7.40;;
75781;SDS011;64400;44.762;37.698;2022-12-20T07:27:14;15.52;;;8.05;;
75781;SDS011;64400;44.762;37.698;2022-12-20T07:30:03;22.83;;;8.73;;
75781;SDS011;64400;44.762;37.698;2022-12-20T07:32:53;16.30;;;8.55;;
75781;SDS011;64400;44.762;37.698;2022-12-20T07:35:43;14.65;;;7.75;;
75781;SDS011;64400;44.762;37.698;2022-12-20T07:38:34;16.95;;;8.20;;
75781;SDS011;64400;44.762;37.698;2022-12-20T07:41:24;14.82;;;7.93;;
75781;SDS011;64400;44.762;37.698;2022-12-20T07:44:15;16.42;;;8.70;;
75781;SDS011;64400;44.762;37.698;2022-12-20T07:47:04;17.27;;;8.45;;
75781;SDS011;64400;44.762;37.698;2022-12-20T07:49:53;16.02;;;8.60;;
75781;SDS011;64400;44.762;37.698;2022-12-20T07:52:42;16.40;;;8.40;;
75781;SDS011;64400;44.762;37.698;2022-12-20T07:55:14;18.48;;;8.57;;
75781;SDS011;64400;44.762;37.698;2022-12-20T07:58:05;20.00;;;8.25;;
75781;SDS011;64400;44.762;37.698;2022-12-20T08:00:56;18.00;;;8.20;;
75781;SDS011;64400;44.762;37.698;2022-12-20T08:03:46;14.60;;;8.10;;
75781;SDS011;64400;44.762;37.698;2022-12-20T08:06:38;17.65;;;8.73;;
75781;SDS011;64400;44.762;37.698;2022-12-20T08:09:29;16.27;;;8.63;;
75781;SDS011;64400;44.762;37.698;2022-12-20T08:12:22;17.20;;;9.52;;
75781;SDS011;64400;44.762;37.698;2022-12-20T08:15:13;17.48;;;8.52;;
75781;SDS011;64400;44.762;37.698;2022-12-20T08:18:01;15.93;;;8.32;;
75781;SDS011;64400;44.762;37.698;2022-12-20T08:20:50;18.15;;;8.15;;
75781;SDS011;64400;44.762;37.698;2022-12-20T08:23:39;13.52;;;7.05;;
75781;SDS011;64400;44.762;37.698;2022-12-20T08:26:28;11.82;;;6.93;;
75781;SDS011;64400;44.762;37.698;2022-12-20T08:29:17;14.05;;;6.90;;
75781;SDS011;64400;44.762;37.698;2022-12-20T08:32:06;15.80;;;7.38;;
75781;SDS011;64400;44.762;37.698;2022-12-20T08:34:34;18.40;;;7.95;;
75781;SDS011;64400;44.762;37.698;2022-12-20T08:37:24;25.33;;;8.15;;
75781;SDS011;64400;44.762;37.698;2022-12-20T08:40:13;18.60;;;7.78;;
75781;SDS011;64400;44.762;37.698;2022-12-20T08:43:02;14.13;;;6.53;;
75781;SDS011;64400;44.762;37.698;2022-12-20T08:45:51;12.32;;;5.65;;
75781;SDS011;64400;44.762;37.698;2022-12-20T08:48:41;16.13;;;7.03;;
75781;SDS011;64400;44.762;37.698;2022-12-20T08:51:30;13.68;;;6.75;;
75781;SDS011;64400;44.762;37.698;2022-12-20T08:54:19;13.13;;;6.00;;
75781;SDS011;64400;44.762;37.698;2022-12-20T08:57:07;17.67;;;7.35;;
75781;SDS011;64400;44.762;37.698;2022-12-20T08:59:41;14.75;;;6.53;;
75781;SDS011;64400;44.762;37.698;2022-12-20T09:02:30;11.95;;;6.63;;
75781;SDS011;64400;44.762;37.698;2022-12-20T09:05:19;19.55;;;7.32;;
75781;SDS011;64400;44.762;37.698;2022-12-20T09:08:08;15.15;;;7.40;;
75781;SDS011;64400;44.762;37.698;2022-12-20T09:11:02;15.95;;;5.90;;
75781;SDS011;64400;44.762;37.698;2022-12-20T09:13:56;18.20;;;7.20;;
75781;SDS011;64400;44.762;37.698;2022-12-20T09:16:46;16.20;;;7.68;;
75781;SDS011;64400;44.762;37.698;2022-12-20T09:19:36;12.48;;;6.28;;
75781;SDS011;64400;44.762;37.698;2022-12-20T09:22:27;20.17;;;6.75;;
75781;SDS011;64400;44.762;37.698;2022-12-20T09:25:16;14.02;;;6.80;;
75781;SDS011;64400;44.762;37.698;2022-12-20T09:28:05;17.25;;;6.63;;
75781;SDS011;64400;44.762;37.698;2022-12-20T09:30:56;11.73;;;5.55;;
75781;SDS011;64400;44.762;37.698;2022-12-20T09:33:51;15.52;;;5.53;;
75781;SDS011;64400;44.762;37.698;2022-12-20T09:36:41;22.42;;;9.05;;
75781;SDS011;64400;44.762;37.698;2022-12-20T09:39:30;18.60;;;7.78;;
75781;SDS011;64400;44.762;37.698;2022-12-20T09:42:20;14.27;;;5.90;;
75781;SDS011;64400;44.762;37.698;2022-12-20T09:45:13;16.88;;;6.15;;
75781;SDS011;64400;44.762;37.698;2022-12-20T09:48:12;25.15;;;6.50;;
75781;SDS011;64400;44.762;37.698;2022-12-20T09:54:42;10.75;;;5.28;;
75781;SDS011;64400;44.762;37.698;2022-12-20T10:00:35;6.18;;;3.17;;
75781;SDS011;64400;44.762;37.698;2022-12-20T10:03:33;13.68;;;5.43;;
75781;SDS011;64400;44.762;37.698;2022-12-20T10:15:50;15.75;;;8.30;;
75781;SDS011;64400;44.762;37.698;2022-12-20T10:18:52;11.27;;;5.75;;
75781;SDS011;64400;44.762;37.698;2022-12-20T10:22:11;9.38;;;5.57;;
75781;SDS011;64400;44.762;37.698;2022-12-20T10:25:21;11.80;;;5.85;;
75781;SDS011;64400;44.762;37.698;2022-12-20T10:28:14;10.93;;;5.60;;
75781;SDS011;64400;44.762;37.698;2022-12-20T10:31:13;7.25;;;3.60;;
75781;SDS011;64400;44.762;37.698;2022-12-20T10:34:04;9.77;;;5.35;;
75781;SDS011;64400;44.762;37.698;2022-12-20T10:37:11;9.45;;;5.07;;
75781;SDS011;64400;44.762;37.698;2022-12-20T10:40:01;12.57;;;5.95;;
75781;SDS011;64400;44.762;37.698;2022-12-20T10:42:36;13.85;;;5.43;;
75781;SDS011;64400;44.762;37.698;2022-12-20T10:48:20;14.55;;;5.85;;
75781;SDS011;64400;44.762;37.698;2022-12-20T10:51:15;16.73;;;6.03;;
75781;SDS011;64400;44.762;37.698;2022-12-20T10:54:00;22.35;;;6.32;;
75781;SDS011;64400;44.762;37.698;2022-12-20T10:56:58;7.82;;;3.92;;
75781;SDS011;64400;44.762;37.698;2022-12-20T10:59:34;10.13;;;4.88;;
75781;SDS011;64400;44.762;37.698;2022-12-20T11:08:06;11.52;;;5.40;;
75781;SDS011;64400;44.762;37.698;2022-12-20T11:14:14;12.32;;;6.45;;
75781;SDS011;64400;44.762;37.698;2022-12-20T11:16:43;9.70;;;5.20;;
75781;SDS011;64400;44.762;37.698;2022-12-20T11:23:06;11.40;;;5.35;;
75781;SDS011;64400;44.762;37.698;2022-12-20T11:38:40;10.90;;;5.93;;
75781;SDS011;64400;44.762;37.698;2022-12-20T11:47:06;12.32;;;6.05;;
75781;SDS011;64400;44.762;37.698;2022-12-20T11:53:37;15.32;;;6.38;;
75781;SDS011;64400;44.762;37.698;2022-12-20T11:56:47;18.70;;;6.80;;
75781;SDS011;64400;44.762;37.698;2022-12-20T11:59:59;12.85;;;6.18;;
75781;SDS011;64400;44.762;37.698;2022-12-20T12:02:43;11.27;;;6.20;;
75781;SDS011;64400;44.762;37.698;2022-12-20T12:05:45;12.73;;;6.78;;
75781;SDS011;64400;44.762;37.698;2022-12-20T12:08:45;11.15;;;6.25;;
75781;SDS011;64400;44.762;37.698;2022-12-20T12:23:32;12.80;;;6.80;;
75781;SDS011;64400;44.762;37.698;2022-12-20T12:26:42;11.93;;;6.72;;
75781;SDS011;64400;44.762;37.698;2022-12-20T12:29:31;14.10;;;6.97;;
75781;SDS011;64400;44.762;37.698;2022-12-20T12:35:04;12.00;;;6.38;;
75781;SDS011;64400;44.762;37.698;2022-12-20T12:47:52;15.95;;;7.07;;
75781;SDS011;64400;44.762;37.698;2022-12-20T12:50:45;11.65;;;5.75;;
75781;SDS011;64400;44.762;37.698;2022-12-20T12:53:42;13.18;;;6.70;;
75781;SDS011;64400;44.762;37.698;2022-12-20T12:56:36;13.85;;;6.78;;
75781;SDS011;64400;44.762;37.698;2022-12-20T13:05:00;14.07;;;6.82;;
75781;SDS011;64400;44.762;37.698;2022-12-20T13:08:14;11.13;;;6.55;;
75781;SDS011;64400;44.762;37.698;2022-12-20T13:11:10;13.25;;;6.35;;
75781;SDS011;64400;44.762;37.698;2022-12-20T13:14:46;13.35;;;6.97;;
75781;SDS011;64400;44.762;37.698;2022-12-20T13:19:59;19.50;;;8.00;;
75781;SDS011;64400;44.762;37.698;2022-12-20T13:25:55;13.05;;;6.90;;
75781;SDS011;64400;44.762;37.698;2022-12-20T13:34:01;17.38;;;6.65;;
75781;SDS011;64400;44.762;37.698;2022-12-20T13:36:50;16.10;;;7.93;;
75781;SDS011;64400;44.762;37.698;2022-12-20T13:39:46;15.40;;;7.07;;
75781;SDS011;64400;44.762;37.698;2022-12-20T13:42:38;14.32;;;6.65;;
75781;SDS011;64400;44.762;37.698;2022-12-20T13:45:29;11.70;;;6.57;;
75781;SDS011;64400;44.762;37.698;2022-12-20T13:48:21;13.32;;;6.38;;
75781;SDS011;64400;44.762;37.698;2022-12-20T13:51:16;14.77;;;7.50;;
75781;SDS011;64400;44.762;37.698;2022-12-20T13:54:14;15.32;;;6.78;;
75781;SDS011;64400;44.762;37.698;2022-12-20T13:57:06;17.27;;;7.20;;
75781;SDS011;64400;44.762;37.698;2022-12-20T13:59:55;14.48;;;6.93;;
75781;SDS011;64400;44.762;37.698;2022-12-20T14:02:47;16.05;;;8.32;;
75781;SDS011;64400;44.762;37.698;2022-12-20T14:05:36;19.00;;;7.82;;
75781;SDS011;64400;44.762;37.698;2022-12-20T14:08:32;16.08;;;7.38;;
75781;SDS011;64400;44.762;37.698;2022-12-20T14:11:23;19.20;;;8.25;;
75781;SDS011;64400;44.762;37.698;2022-12-20T14:14:03;15.70;;;7.80;;
75781;SDS011;64400;44.762;37.698;2022-12-20T14:16:51;15.93;;;8.82;;
75781;SDS011;64400;44.762;37.698;2022-12-20T14:19:41;16.90;;;8.32;;
75781;SDS011;64400;44.762;37.698;2022-12-20T14:22:31;19.10;;;8.70;;
75781;SDS011;64400;44.762;37.698;2022-12-20T14:25:33;17.50;;;8.18;;
75781;SDS011;64400;44.762;37.698;2022-12-20T14:28:36;21.08;;;9.57;;
75781;SDS011;64400;44.762;37.698;2022-12-20T14:34:31;21.20;;;8.43;;
75781;SDS011;64400;44.762;37.698;2022-12-20T14:37:32;18.02;;;8.18;;
75781;SDS011;64400;44.762;37.698;2022-12-20T14:40:25;17.73;;;9.13;;
75781;SDS011;64400;44.762;37.698;2022-12-20T14:43:15;18.98;;;8.80;;
75781;SDS011;64400;44.762;37.698;2022-12-20T14:46:18;16.15;;;7.85;;
75781;SDS011;64400;44.762;37.698;2022-12-20T14:49:19;23.30;;;8.70;;
75781;SDS011;64400;44.762;37.698;2022-12-20T14:52:15;16.77;;;8.90;;
75781;SDS011;64400;44.762;37.698;2022-12-20T14:55:10;17.42;;;8.50;;
75781;SDS011;64400;44.762;37.698;2022-12-20T14:58:21;20.20;;;8.82;;
75781;SDS011;64400;44.762;37.698;2022-12-20T15:01:24;21.25;;;8.75;;
75781;SDS011;64400;44.762;37.698;2022-12-20T15:04:29;22.48;;;9.00;;
75781;SDS011;64400;44.762;37.698;2022-12-20T15:07:29;21.35;;;10.77;;
75781;SDS011;64400;44.762;37.698;2022-12-20T15:10:20;22.85;;;10.18;;
75781;SDS011;64400;44.762;37.698;2022-12-20T15:13:11;20.35;;;10.35;;
75781;SDS011;64400;44.762;37.698;2022-12-20T15:16:03;18.58;;;8.30;;
75781;SDS011;64400;44.762;37.698;2022-12-20T15:18:58;17.95;;;8.52;;
75781;SDS011;64400;44.762;37.698;2022-12-20T15:21:50;20.08;;;8.15;;
75781;SDS011;64400;44.762;37.698;2022-12-20T15:24:41;17.42;;;8.70;;
75781;SDS011;64400;44.762;37.698;2022-12-20T15:27:30;18.73;;;9.50;;
75781;SDS011;64400;44.762;37.698;2022-12-20T15:30:20;16.85;;;8.77;;
75781;SDS011;64400;44.762;37.698;2022-12-20T15:33:13;17.45;;;8.50;;
75781;SDS011;64400;44.762;37.698;2022-12-20T15:36:08;20.75;;;8.98;;
75781;SDS011;64400;44.762;37.698;2022-12-20T15:39:03;22.88;;;9.30;;
75781;SDS011;64400;44.762;37.698;2022-12-20T15:41:52;29.80;;;9.70;;
75781;SDS011;64400;44.762;37.698;2022-12-20T15:44:41;21.60;;;9.63;;
75781;SDS011;64400;44.762;37.698;2022-12-20T15:47:31;25.00;;;11.25;;
75781;SDS011;64400;44.762;37.698;2022-12-20T15:50:19;21.08;;;10.05;;
75781;SDS011;64400;44.762;37.698;2022-12-20T15:53:12;21.50;;;9.70;;
75781;SDS011;64400;44.762;37.698;2022-12-20T15:56:02;26.92;;;9.80;;
75781;SDS011;64400;44.762;37.698;2022-12-20T15:58:52;23.10;;;10.43;;
75781;SDS011;64400;44.762;37.698;2022-12-20T16:01:41;26.23;;;11.63;;
75781;SDS011;64400;44.762;37.698;2022-12-20T16:04:29;26.08;;;11.82;;
75781;SDS011;64400;44.762;37.698;2022-12-20T16:07:18;43.38;;;19.00;;
75781;SDS011;64400;44.762;37.698;2022-12-20T16:10:08;47.05;;;22.42;;
75781;SDS011;64400;44.762;37.698;2022-12-20T16:12:51;44.35;;;19.85;;
75781;SDS011;64400;44.762;37.698;2022-12-20T16:15:20;35.05;;;17.35;;
75781;SDS011;64400;44.762;37.698;2022-12-20T16:18:09;32.70;;;16.73;;
75781;SDS011;64400;44.762;37.698;2022-12-20T16:20:58;39.40;;;16.73;;
75781;SDS011;64400;44.762;37.698;2022-12-20T16:23:39;31.88;;;15.40;;
75781;SDS011;64400;44.762;37.698;2022-12-20T16:26:28;28.30;;;11.60;;
75781;SDS011;64400;44.762;37.698;2022-12-20T16:29:16;27.65;;;12.50;;
75781;SDS011;64400;44.762;37.698;2022-12-20T16:32:14;24.90;;;12.40;;
75781;SDS011;64400;44.762;37.698;2022-12-20T16:35:05;22.75;;;10.57;;
75781;SDS011;64400;44.762;37.698;2022-12-20T16:37:54;19.80;;;10.90;;
75781;SDS011;64400;44.762;37.698;2022-12-20T16:40:44;19.98;;;9.85;;
75781;SDS011;64400;44.762;37.698;2022-12-20T16:43:32;25.20;;;10.30;;
75781;SDS011;64400;44.762;37.698;2022-12-20T16:46:21;20.23;;;9.70;;
75781;SDS011;64400;44.762;37.698;2022-12-20T16:49:13;24.02;;;9.85;;
75781;SDS011;64400;44.762;37.698;2022-12-20T16:52:01;19.77;;;10.27;;
75781;SDS011;64400;44.762;37.698;2022-12-20T16:54:52;21.25;;;10.77;;
75781;SDS011;64400;44.762;37.698;2022-12-20T16:57:42;23.45;;;11.13;;
75781;SDS011;64400;44.762;37.698;2022-12-20T17:00:30;19.58;;;10.10;;
75781;SDS011;64400;44.762;37.698;2022-12-20T17:03:19;20.55;;;10.13;;
75781;SDS011;64400;44.762;37.698;2022-12-20T17:06:08;19.85;;;10.00;;
75781;SDS011;64400;44.762;37.698;2022-12-20T17:08:59;19.33;;;9.30;;
75781;SDS011;64400;44.762;37.698;2022-12-20T17:11:44;21.38;;;10.00;;
75781;SDS011;64400;44.762;37.698;2022-12-20T17:14:27;20.20;;;10.35;;
75781;SDS011;64400;44.762;37.698;2022-12-20T17:17:15;22.45;;;9.80;;
75781;SDS011;64400;44.762;37.698;2022-12-20T17:20:05;20.52;;;9.52;;
75781;SDS011;64400;44.762;37.698;2022-12-20T17:22:54;24.27;;;10.30;;
75781;SDS011;64400;44.762;37.698;2022-12-20T17:25:26;18.95;;;9.82;;
75781;SDS011;64400;44.762;37.698;2022-12-20T17:28:17;22.23;;;10.77;;
75781;SDS011;64400;44.762;37.698;2022-12-20T17:34:29;22.02;;;10.77;;
75781;SDS011;64400;44.762;37.698;2022-12-20T17:37:13;23.50;;;11.55;;
75781;SDS011;64400;44.762;37.698;2022-12-20T17:40:01;21.48;;;10.20;;
75781;SDS011;64400;44.762;37.698;2022-12-20T17:42:53;21.50;;;10.98;;
75781;SDS011;64400;44.762;37.698;2022-12-20T17:45:36;23.30;;;11.80;;
75781;SDS011;64400;44.762;37.698;2022-12-20T17:48:25;19.95;;;9.90;;
75781;SDS011;64400;44.762;37.698;2022-12-20T17:51:17;20.13;;;10.05;;
75781;SDS011;64400;44.762;37.698;2022-12-20T17:53:53;21.48;;;10.15;;
75781;SDS011;64400;44.762;37.698;2022-12-20T17:56:44;20.63;;;10.13;;
75781;SDS011;64400;44.762;37.698;2022-12-20T17:59:33;21.65;;;10.63;;
75781;SDS011;64400;44.762;37.698;2022-12-20T18:02:23;23.02;;;10.90;;
75781;SDS011;64400;44.762;37.698;2022-12-20T18:05:12;33.92;;;13.02;;
75781;SDS011;64400;44.762;37.698;2022-12-20T18:07:56;24.73;;;12.00;;
75781;SDS011;64400;44.762;37.698;2022-12-20T18:10:45;27.63;;;11.60;;
75781;SDS011;64400;44.762;37.698;2022-12-20T18:13:19;24.50;;;11.48;;
75781;SDS011;64400;44.762;37.698;2022-12-20T18:16:08;22.48;;;10.10;;
75781;SDS011;64400;44.762;37.698;2022-12-20T18:18:44;21.38;;;10.35;;
75781;SDS011;64400;44.762;37.698;2022-12-20T18:21:31;27.55;;;10.93;;
75781;SDS011;64400;44.762;37.698;2022-12-20T18:24:20;32.97;;;15.10;;
75781;SDS011;64400;44.762;37.698;2022-12-20T18:26:54;28.52;;;14.55;;
75781;SDS011;64400;44.762;37.698;2022-12-20T18:29:33;29.45;;;13.30;;